createdAt,value
2022-08-22T00:00:11.222Z,64.58
2022-08-22T00:02:44.406Z,55.35
2022-08-22T00:02:45.528Z,44.42
2022-08-22T00:02:47.892Z,41.73
2022-08-22T00:03:00.472Z,47.05
2022-08-22T00:03:00.666Z,45.50
2022-08-22T00:03:10.730Z,61.08
2022-08-22T00:06:07.724Z,66.59
2022-08-22T00:08:53.947Z,66.89
2022-08-22T00:11:40.248Z,67.12
2022-08-22T00:14:21.238Z,67.83
2022-08-22T00:17:01.572Z,68.47
2022-08-22T00:19:48.749Z,68.61
2022-08-22T00:22:26.631Z,69.29
2022-08-22T00:25:12.435Z,69.48
2022-08-22T00:28:03.408Z,69.64
2022-08-22T00:30:50.344Z,70.01
2022-08-22T00:33:37.991Z,70.80
2022-08-22T00:36:20.551Z,71.08
2022-08-22T00:39:00.225Z,71.47
2022-08-22T00:42:31.793Z,71.86
2022-08-22T00:45:59.326Z,72.08
2022-08-22T00:49:03.827Z,71.60
2022-08-22T00:52:16.870Z,72.01
2022-08-22T00:55:22.214Z,72.39
2022-08-22T00:58:32.834Z,72.04
2022-08-22T01:01:08.728Z,72.67
2022-08-22T01:04:26.945Z,73.05
2022-08-22T01:07:18.922Z,73.51
2022-08-22T01:10:05.334Z,74.00
2022-08-22T01:13:07.565Z,74.44
2022-08-22T01:15:39.738Z,75.02
2022-08-22T01:18:51.871Z,75.97
2022-08-22T01:22:01.247Z,75.99
2022-08-22T01:25:26.071Z,75.96
2022-08-22T01:28:43.099Z,76.02
2022-08-22T01:31:52.760Z,76.09
2022-08-22T01:35:26.301Z,76.13
2022-08-22T01:38:37.460Z,76.27
2022-08-22T01:41:50.034Z,76.98
2022-08-22T01:45:03.504Z,77.16
2022-08-22T01:47:41.208Z,77.84
2022-08-22T01:50:25.025Z,77.93
2022-08-22T01:53:06.037Z,77.88
2022-08-22T01:55:42.404Z,78.06
2022-08-22T01:58:25.201Z,78.70
2022-08-22T02:01:09.908Z,79.24
2022-08-22T02:03:54.565Z,79.78
2022-08-22T02:06:37.307Z,79.67
2022-08-22T02:09:21.725Z,79.99
2022-08-22T02:11:57.661Z,80.93
2022-08-22T02:14:43.196Z,81.27
2022-08-22T02:17:23.010Z,81.87
2022-08-22T02:20:02.856Z,82.54
2022-08-22T02:22:44.493Z,83.43
2022-08-22T02:25:28.625Z,83.58
2022-08-22T02:28:09.690Z,84.53
2022-08-22T02:30:53.769Z,84.24
2022-08-22T02:33:35.646Z,83.72
2022-08-22T02:36:21.810Z,84.16
2022-08-22T02:39:04.061Z,83.69
2022-08-22T02:41:50.357Z,83.60
2022-08-22T02:44:27.866Z,83.70
2022-08-22T02:47:09.056Z,83.72
2022-08-22T02:49:53.100Z,83.42
2022-08-22T02:52:40.756Z,84.16
2022-08-22T02:55:17.535Z,85.50
2022-08-22T02:58:01.960Z,86.33
2022-08-22T03:00:44.558Z,86.73
2022-08-22T03:03:22.565Z,86.75
2022-08-22T03:06:01.811Z,86.84
2022-08-22T03:08:34.594Z,87.58
2022-08-22T03:11:25.366Z,87.84
2022-08-22T03:14:07.447Z,88.29
2022-08-22T03:16:47.060Z,87.68
2022-08-22T03:19:28.960Z,88.52
2022-08-22T03:22:08.383Z,88.70
2022-08-22T03:24:51.034Z,88.63
2022-08-22T03:27:32.423Z,88.69
2022-08-22T03:30:12.390Z,89.40
2022-08-22T03:32:55.800Z,89.98
2022-08-22T03:35:34.107Z,89.79
2022-08-22T03:38:23.552Z,90.42
2022-08-22T03:41:31.360Z,90.51
2022-08-22T03:44:59.421Z,91.01
2022-08-22T03:48:40.520Z,91.27
2022-08-22T03:51:26.951Z,91.44
2022-08-22T03:54:35.516Z,92.34
2022-08-22T03:57:59.188Z,92.88
2022-08-22T04:01:16.669Z,93.09
2022-08-22T04:04:44.495Z,93.70
2022-08-22T04:07:58.756Z,93.86
2022-08-22T04:11:17.245Z,95.02
2022-08-22T04:14:19.608Z,94.59
2022-08-22T04:17:43.339Z,94.44
2022-08-22T04:21:03.744Z,95.06
2022-08-22T04:24:10.583Z,96.16
2022-08-22T04:26:49.109Z,95.91
2022-08-22T04:29:28.587Z,95.73
2022-08-22T04:32:14.123Z,95.71
2022-08-22T04:34:49.877Z,96.04
2022-08-22T04:37:32.212Z,95.94
2022-08-22T04:40:11.465Z,95.66
2022-08-22T04:42:46.825Z,95.53
2022-08-22T04:45:23.857Z,96.65
2022-08-22T04:48:02.290Z,96.92
2022-08-22T04:50:42.989Z,98.66
2022-08-22T04:53:31.650Z,99.06
2022-08-22T04:56:12.334Z,99.10
2022-08-22T04:58:48.903Z,98.90
2022-08-22T05:01:22.366Z,99.15
2022-08-22T05:04:01.760Z,98.70
2022-08-22T05:06:35.046Z,98.60
2022-08-22T05:09:16.020Z,98.32
2022-08-22T05:11:46.999Z,98.61
2022-08-22T05:14:24.095Z,98.96
2022-08-22T05:16:57.537Z,98.61
2022-08-22T05:19:34.724Z,98.51
2022-08-22T05:22:05.825Z,98.95
2022-08-22T05:24:42.413Z,99.64
2022-08-22T05:27:16.996Z,100.00
2022-08-22T05:29:51.777Z,100.00
2022-08-22T05:32:29.067Z,100.00
2022-08-22T05:35:03.357Z,100.00
2022-08-22T05:37:43.204Z,100.00
2022-08-22T05:40:22.014Z,100.00
2022-08-22T05:42:51.629Z,100.00
2022-08-22T05:45:22.004Z,100.00
2022-08-22T05:47:58.133Z,100.00
2022-08-22T05:50:38.167Z,99.96
2022-08-22T05:53:14.401Z,99.29
2022-08-22T05:56:00.196Z,98.75
2022-08-22T05:58:52.303Z,98.35
2022-08-22T06:01:39.953Z,98.26
2022-08-22T06:04:16.460Z,97.77
2022-08-22T06:06:55.674Z,97.22
2022-08-22T06:09:35.592Z,96.89
2022-08-22T06:12:18.128Z,96.52
2022-08-22T06:15:11.906Z,95.95
2022-08-22T06:17:49.414Z,95.57
2022-08-22T06:20:23.761Z,95.38
2022-08-22T06:22:57.035Z,95.26
2022-08-22T06:25:32.369Z,94.83
2022-08-22T06:28:09.538Z,94.92
2022-08-22T06:30:41.114Z,94.37
2022-08-22T06:33:17.268Z,94.13
2022-08-22T06:36:10.042Z,93.92
2022-08-22T06:38:58.919Z,94.02
2022-08-22T06:41:34.348Z,93.89
2022-08-22T06:44:08.064Z,93.74
2022-08-22T06:46:39.610Z,93.59
2022-08-22T06:49:11.027Z,93.42
2022-08-22T06:51:40.801Z,93.24
2022-08-22T06:54:19.205Z,92.97
2022-08-22T06:56:52.668Z,92.79
2022-08-22T06:59:28.739Z,92.39
2022-08-22T07:02:07.073Z,92.21
2022-08-22T07:04:37.241Z,92.32
2022-08-22T07:07:06.886Z,92.28
2022-08-22T07:09:39.725Z,92.53
2022-08-22T07:12:18.402Z,92.26
2022-08-22T07:14:53.666Z,92.00
2022-08-22T07:17:28.592Z,91.68
2022-08-22T07:20:05.009Z,91.71
2022-08-22T07:22:37.582Z,91.65
2022-08-22T07:25:14.892Z,91.37
2022-08-22T07:28:04.490Z,90.52
2022-08-22T07:30:55.851Z,89.98
2022-08-22T07:33:44.104Z,89.35
2022-08-22T07:36:32.092Z,88.61
2022-08-22T07:39:23.894Z,87.61
2022-08-22T07:42:08.756Z,85.94
2022-08-22T07:44:58.735Z,84.19
2022-08-22T07:47:49.980Z,82.89
2022-08-22T07:50:31.403Z,81.41
2022-08-22T07:53:10.839Z,81.37
2022-08-22T07:55:49.869Z,81.06
2022-08-22T07:58:19.895Z,80.61
2022-08-22T08:00:50.674Z,79.23
2022-08-22T08:03:27.617Z,78.44
2022-08-22T08:05:57.120Z,78.13
2022-08-22T08:08:33.175Z,77.87
2022-08-22T08:11:04.761Z,77.85
2022-08-22T08:13:39.543Z,77.93
2022-08-22T08:16:17.907Z,77.71
2022-08-22T08:18:51.088Z,77.50
2022-08-22T08:21:30.978Z,76.76
2022-08-22T08:24:03.825Z,75.78
2022-08-22T08:26:39.887Z,74.65
2022-08-22T08:29:09.255Z,74.64
2022-08-22T08:31:44.746Z,73.92
2022-08-22T08:34:24.506Z,73.05
2022-08-22T08:36:59.139Z,72.54
2022-08-22T08:39:36.790Z,72.99
2022-08-22T08:43:05.671Z,72.50
2022-08-22T08:46:07.061Z,71.32
2022-08-22T08:49:39.764Z,71.14
2022-08-22T08:52:58.639Z,69.64
2022-08-22T08:55:47.390Z,67.97
2022-08-22T08:58:43.390Z,67.17
2022-08-22T09:01:42.098Z,67.27
2022-08-22T09:04:42.310Z,66.12
2022-08-22T09:08:14.856Z,65.88
2022-08-22T09:11:14.408Z,65.99
2022-08-22T09:14:03.773Z,65.26
2022-08-22T09:16:59.613Z,65.05
2022-08-22T09:20:25.920Z,63.75
2022-08-22T09:23:45.298Z,63.27
2022-08-22T09:26:25.994Z,63.06
2022-08-22T09:29:08.694Z,61.47
2022-08-22T09:31:52.642Z,61.10
2022-08-22T09:34:33.813Z,61.11
2022-08-22T09:37:20.708Z,60.76
2022-08-22T09:40:05.512Z,60.48
2022-08-22T09:42:51.285Z,59.45
2022-08-22T09:45:45.421Z,59.39
2022-08-22T09:48:43.028Z,58.17
2022-08-22T09:51:31.966Z,56.01
2022-08-22T09:54:31.439Z,54.50
2022-08-22T09:57:22.684Z,54.85
2022-08-22T10:00:17.476Z,52.91
2022-08-22T10:03:12.503Z,52.03
2022-08-22T10:05:48.926Z,52.84
2022-08-22T10:08:46.559Z,53.14
2022-08-22T10:11:29.080Z,52.66
2022-08-22T10:14:05.942Z,51.07
2022-08-22T10:17:03.731Z,50.88
2022-08-22T10:19:42.924Z,49.45
2022-08-22T10:22:40.468Z,48.74
2022-08-22T10:25:41.630Z,49.44
2022-08-22T10:28:23.499Z,50.23
2022-08-22T10:31:24.133Z,49.60
2022-08-22T10:34:10.984Z,49.68
2022-08-22T10:36:59.305Z,48.50
2022-08-22T10:39:43.988Z,48.56
2022-08-22T10:42:35.086Z,48.46
2022-08-22T10:45:35.957Z,48.46
2022-08-22T10:48:35.676Z,48.38
2022-08-22T10:51:25.827Z,47.49
2022-08-22T10:54:28.346Z,46.15
2022-08-22T10:57:15.468Z,46.20
2022-08-22T11:00:02.948Z,45.92
2022-08-22T11:02:45.238Z,44.66
2022-08-22T11:05:39.309Z,44.76
2022-08-22T11:09:00.280Z,42.23
2022-08-22T11:11:56.162Z,43.28
2022-08-22T11:15:08.048Z,42.35
2022-08-22T11:18:21.256Z,41.25
2022-08-22T11:21:07.316Z,41.10
2022-08-22T11:23:48.207Z,40.71
2022-08-22T11:26:47.025Z,41.13
2022-08-22T11:29:46.303Z,41.68
2022-08-22T11:32:26.745Z,40.78
2022-08-22T11:35:09.201Z,40.87
2022-08-22T11:37:54.818Z,40.58
2022-08-22T11:40:37.745Z,40.98
2022-08-22T11:43:38.294Z,40.57
2022-08-22T11:46:28.405Z,40.04
2022-08-22T11:49:33.612Z,39.82
2022-08-22T11:52:31.000Z,40.11
2022-08-22T11:55:32.734Z,39.79
2022-08-22T11:58:28.729Z,40.33
2022-08-22T12:01:04.495Z,38.71
2022-08-22T12:04:03.319Z,38.77
2022-08-22T12:07:03.047Z,38.66
2022-08-22T12:09:55.204Z,38.89
2022-08-22T12:12:51.553Z,38.73
2022-08-22T12:15:26.520Z,37.78
2022-08-22T12:18:56.131Z,38.26
2022-08-22T12:22:00.536Z,38.28
2022-08-22T12:24:43.532Z,38.27
2022-08-22T12:27:55.166Z,38.20
2022-08-22T12:30:38.738Z,37.79
2022-08-22T12:33:41.044Z,38.34
2022-08-22T12:36:32.525Z,38.00
2022-08-22T12:39:42.700Z,37.60
2022-08-22T12:42:46.297Z,37.22
2022-08-22T12:45:40.742Z,38.11
2022-08-22T12:48:32.413Z,37.64
2022-08-22T12:51:29.400Z,36.28
2022-08-22T12:54:41.895Z,35.36
2022-08-22T12:57:27.817Z,35.37
2022-08-22T13:00:09.125Z,35.36
2022-08-22T13:02:44.981Z,34.58
2022-08-22T13:05:21.739Z,35.37
2022-08-22T13:08:04.404Z,34.98
2022-08-22T13:10:58.243Z,35.26
2022-08-22T13:13:37.109Z,35.31
2022-08-22T13:16:12.333Z,34.81
2022-08-22T13:18:54.379Z,34.86
2022-08-22T13:21:34.680Z,34.33
2022-08-22T13:24:16.905Z,34.26
2022-08-22T13:26:54.282Z,34.64
2022-08-22T13:29:39.163Z,34.42
2022-08-22T13:32:26.214Z,34.37
2022-08-22T13:34:59.495Z,34.42
2022-08-22T13:37:38.004Z,34.52
2022-08-22T13:40:14.553Z,34.28
2022-08-22T13:42:50.124Z,34.75
2022-08-22T13:45:28.686Z,34.94
2022-08-22T13:48:03.867Z,34.68
2022-08-22T13:51:08.129Z,35.32
2022-08-22T13:53:49.749Z,35.34
2022-08-22T13:56:47.121Z,34.79
2022-08-22T13:59:49.772Z,34.86
2022-08-22T14:02:43.491Z,34.54
2022-08-22T14:05:23.939Z,34.65
2022-08-22T14:08:12.483Z,35.02
2022-08-22T14:10:55.633Z,35.03
2022-08-22T14:13:44.077Z,34.63
2022-08-22T14:16:22.745Z,35.06
2022-08-22T14:18:54.948Z,35.14
2022-08-22T14:21:59.516Z,34.95
2022-08-22T14:24:34.293Z,35.16
2022-08-22T14:27:17.587Z,35.44
2022-08-22T14:29:56.460Z,34.32
2022-08-22T14:32:47.961Z,33.73
2022-08-22T14:35:25.686Z,34.06
2022-08-22T14:38:27.485Z,33.19
2022-08-22T14:41:08.110Z,33.57
2022-08-22T14:43:54.980Z,33.52
2022-08-22T14:46:43.467Z,32.95
2022-08-22T14:49:47.194Z,32.23
2022-08-22T14:52:32.768Z,30.94
2022-08-22T14:55:17.695Z,30.69
2022-08-22T14:57:56.303Z,30.25
2022-08-22T15:00:31.301Z,30.41
2022-08-22T15:03:27.053Z,30.55
2022-08-22T15:06:00.612Z,30.27
2022-08-22T15:08:34.704Z,29.95
2022-08-22T15:11:22.985Z,29.81
2022-08-22T15:14:01.442Z,29.80
2022-08-22T15:16:36.764Z,30.08
2022-08-22T15:19:27.483Z,30.11
2022-08-22T15:22:13.637Z,30.48
2022-08-22T15:24:51.200Z,29.97
2022-08-22T15:27:27.786Z,28.77
2022-08-22T15:30:03.546Z,29.11
2022-08-22T15:32:41.962Z,28.71
2022-08-22T15:35:17.780Z,30.94
2022-08-22T15:38:01.548Z,31.46
2022-08-22T15:40:40.448Z,31.40
2022-08-22T15:43:25.050Z,31.38
2022-08-22T15:46:26.507Z,32.03
2022-08-22T15:49:01.885Z,31.39
2022-08-22T15:51:42.494Z,31.74
2022-08-22T15:54:24.594Z,32.14
2022-08-22T15:57:19.160Z,31.50
2022-08-22T15:59:59.107Z,31.55
2022-08-22T16:02:36.950Z,31.09
2022-08-22T16:05:26.594Z,31.76
2022-08-22T16:08:06.315Z,32.01
2022-08-22T16:10:42.424Z,32.01
2022-08-22T16:13:43.992Z,31.32
2022-08-22T16:16:49.036Z,31.31
2022-08-22T16:19:24.861Z,32.23
2022-08-22T16:22:47.389Z,31.51
2022-08-22T16:25:18.039Z,31.79
2022-08-22T16:27:58.336Z,32.40
2022-08-22T16:30:39.652Z,32.61
2022-08-22T16:33:18.286Z,32.70
2022-08-22T16:36:45.293Z,32.78
2022-08-22T16:39:38.054Z,32.36
2022-08-22T16:42:28.599Z,32.47
2022-08-22T16:45:17.704Z,33.42
2022-08-22T16:48:02.267Z,32.23
2022-08-22T16:50:40.943Z,31.28
2022-08-22T16:53:47.913Z,31.91
2022-08-22T16:56:28.505Z,31.81
2022-08-22T16:59:24.059Z,31.71
2022-08-22T17:02:26.777Z,31.93
2022-08-22T17:05:20.851Z,32.11
2022-08-22T17:08:11.527Z,31.81
2022-08-22T17:10:59.620Z,32.26
2022-08-22T17:14:03.436Z,32.47
2022-08-22T17:16:56.440Z,33.14
2022-08-22T17:19:53.442Z,33.26
2022-08-22T17:22:38.434Z,33.67
2022-08-22T17:25:29.885Z,33.93
2022-08-22T17:28:19.991Z,34.16
2022-08-22T17:31:02.265Z,34.12
2022-08-22T17:34:04.009Z,34.39
2022-08-22T17:36:53.143Z,34.70
2022-08-22T17:39:47.356Z,35.25
2022-08-22T17:42:39.578Z,34.84
2022-08-22T17:45:27.734Z,35.10
2022-08-22T17:48:07.888Z,35.22
2022-08-22T17:50:47.356Z,35.97
2022-08-22T17:53:32.569Z,36.46
2022-08-22T17:56:21.280Z,36.38
2022-08-22T17:59:03.025Z,36.46
2022-08-22T18:01:50.564Z,36.67
2022-08-22T18:04:32.419Z,36.86
2022-08-22T18:07:25.362Z,37.26
2022-08-22T18:10:04.719Z,37.44
2022-08-22T18:12:43.562Z,37.69
2022-08-22T18:15:24.634Z,37.73
2022-08-22T18:18:02.116Z,38.18
2022-08-22T18:20:40.890Z,38.21
2022-08-22T18:23:39.263Z,38.85
2022-08-22T18:26:24.357Z,38.87
2022-08-22T18:29:08.508Z,38.41
2022-08-22T18:31:49.543Z,38.92
2022-08-22T18:34:36.703Z,38.95
2022-08-22T18:37:42.526Z,39.62
2022-08-22T18:40:28.164Z,39.69
2022-08-22T18:43:08.711Z,39.80
2022-08-22T18:46:04.644Z,40.45
2022-08-22T18:49:05.414Z,40.26
2022-08-22T18:51:38.151Z,40.83
2022-08-22T18:54:40.961Z,41.15
2022-08-22T18:57:40.302Z,41.26
2022-08-22T19:00:16.530Z,41.18
2022-08-22T19:03:36.043Z,41.43
2022-08-22T19:06:38.604Z,41.90
2022-08-22T19:09:35.094Z,42.72
2022-08-22T19:12:23.114Z,42.64
2022-08-22T19:15:21.454Z,42.42
2022-08-22T19:18:23.791Z,42.85
2022-08-22T19:21:37.693Z,43.36
2022-08-22T19:24:13.835Z,43.09
2022-08-22T19:26:47.995Z,44.04
2022-08-22T19:30:03.218Z,43.57
2022-08-22T19:33:03.175Z,43.71
2022-08-22T19:35:46.004Z,44.25
2022-08-22T19:38:53.131Z,44.83
2022-08-22T19:41:52.464Z,44.83
2022-08-22T19:44:42.213Z,45.19
2022-08-22T19:47:35.129Z,45.79
2022-08-22T19:50:13.829Z,45.80
2022-08-22T19:53:19.378Z,46.43
2022-08-22T19:56:11.328Z,46.30
2022-08-22T19:59:02.017Z,46.50
2022-08-22T20:01:51.359Z,46.72
2022-08-22T20:05:04.086Z,47.06
2022-08-22T20:07:53.012Z,47.22
2022-08-22T20:10:33.146Z,47.22
2022-08-22T20:13:11.888Z,47.33
2022-08-22T20:16:09.617Z,47.36
2022-08-22T20:19:18.932Z,47.83
2022-08-22T20:21:59.966Z,48.71
2022-08-22T20:24:40.469Z,49.30
2022-08-22T20:27:18.345Z,49.13
2022-08-22T20:29:56.540Z,49.60
2022-08-22T20:32:28.104Z,49.57
2022-08-22T20:35:01.355Z,49.51
2022-08-22T20:38:03.135Z,49.56
2022-08-22T20:40:55.285Z,49.92
2022-08-22T20:43:35.435Z,50.14
2022-08-22T20:46:36.833Z,50.38
2022-08-22T20:49:07.580Z,50.81
2022-08-22T20:51:36.650Z,51.25
2022-08-22T20:54:35.219Z,51.34
2022-08-22T20:57:13.982Z,51.35
2022-08-22T20:59:52.201Z,52.08
2022-08-22T21:02:27.012Z,52.58
2022-08-22T21:05:01.829Z,52.86
2022-08-22T21:07:34.874Z,53.06
2022-08-22T21:10:27.215Z,53.21
2022-08-22T21:13:08.980Z,53.50
2022-08-22T21:15:42.099Z,53.51
2022-08-22T21:18:14.228Z,53.91
2022-08-22T21:20:44.084Z,54.77
2022-08-22T21:23:16.372Z,54.70
2022-08-22T21:25:57.223Z,55.24
2022-08-22T21:28:35.787Z,55.66
2022-08-22T21:31:17.042Z,55.82
2022-08-22T21:33:50.035Z,56.29
2022-08-22T21:36:24.310Z,56.85
2022-08-22T21:38:57.387Z,56.61
2022-08-22T21:41:30.355Z,56.53
2022-08-22T21:44:30.155Z,56.82
2022-08-22T21:47:17.181Z,57.26
2022-08-22T21:50:31.753Z,57.28
2022-08-22T21:53:11.917Z,57.76
2022-08-22T21:55:44.732Z,58.39
2022-08-22T21:58:36.585Z,58.87
2022-08-22T22:01:33.234Z,58.88
2022-08-22T22:04:01.917Z,59.11
2022-08-22T22:06:31.116Z,60.31
2022-08-22T22:09:00.921Z,60.42
2022-08-22T22:11:29.555Z,60.15
2022-08-22T22:13:58.178Z,60.13
2022-08-22T22:16:29.726Z,59.86
2022-08-22T22:18:59.008Z,60.18
2022-08-22T22:21:29.593Z,60.98
2022-08-22T22:23:58.399Z,61.96
2022-08-22T22:26:30.055Z,61.72
2022-08-22T22:28:59.796Z,61.91
2022-08-22T22:31:28.457Z,62.12
2022-08-22T22:33:56.944Z,62.65
2022-08-22T22:36:28.680Z,63.34
2022-08-22T22:38:57.233Z,64.16
2022-08-22T22:41:26.143Z,63.41
2022-08-22T22:43:58.247Z,64.25
2022-08-22T22:46:26.956Z,65.82
2022-08-22T22:48:55.608Z,65.89
2022-08-22T22:51:24.842Z,66.00
2022-08-22T22:53:53.895Z,66.21
2022-08-22T22:56:24.805Z,65.98
2022-08-22T22:58:59.304Z,65.89
2022-08-22T23:02:03.776Z,66.85
2022-08-22T23:04:33.969Z,67.12
2022-08-22T23:07:03.169Z,66.46
2022-08-22T23:09:38.419Z,66.34
2022-08-22T23:12:14.120Z,67.50
2022-08-22T23:14:44.277Z,68.18
2022-08-22T23:17:12.995Z,68.29
2022-08-22T23:19:41.657Z,68.43
2022-08-22T23:22:12.603Z,68.02
2022-08-22T23:24:41.974Z,68.93
2022-08-22T23:27:12.529Z,69.62
2022-08-22T23:29:44.020Z,70.48
2022-08-22T23:32:14.671Z,70.89
2022-08-22T23:34:46.868Z,71.15
2022-08-22T23:37:19.948Z,71.83
2022-08-22T23:39:49.434Z,72.37
2022-08-22T23:42:19.268Z,72.44
2022-08-22T23:44:49.377Z,72.45
2022-08-22T23:47:18.463Z,72.01
2022-08-22T23:49:47.529Z,72.05
2022-08-22T23:52:16.090Z,72.47
2022-08-22T23:54:45.212Z,72.57
2022-08-22T23:57:13.733Z,73.61
2022-08-22T23:59:48.468Z,74.52
